createdAt,value
2018-05-10T00:00:09.044Z,71
2018-05-10T00:01:09.776Z,71
2018-05-10T00:02:10.494Z,71
2018-05-10T00:03:11.230Z,71
2018-05-10T00:04:11.952Z,71
2018-05-10T00:05:12.676Z,71
2018-05-10T00:06:13.398Z,71
2018-05-10T00:07:14.156Z,71
2018-05-10T00:08:14.888Z,71
2018-05-10T00:09:15.605Z,71
2018-05-10T00:10:16.328Z,71
2018-05-10T00:11:17.153Z,71
2018-05-10T00:12:17.800Z,71
2018-05-10T00:13:18.525Z,71
2018-05-10T00:14:19.275Z,72
2018-05-10T00:15:20.000Z,72
2018-05-10T00:16:20.724Z,72
2018-05-10T00:17:21.474Z,71
2018-05-10T00:18:22.231Z,72
2018-05-10T00:19:22.966Z,72
2018-05-10T00:20:23.700Z,72
2018-05-10T00:21:24.477Z,72
2018-05-10T00:22:25.225Z,72
2018-05-10T00:23:25.951Z,72
2018-05-10T00:24:26.818Z,72
2018-05-10T00:25:27.399Z,72
2018-05-10T00:26:28.155Z,72
2018-05-10T00:27:28.892Z,72
2018-05-10T00:28:29.648Z,72
2018-05-10T00:29:30.375Z,72
2018-05-10T00:30:31.132Z,72
2018-05-10T00:31:31.856Z,72
2018-05-10T00:32:32.579Z,72
2018-05-10T00:33:33.304Z,72
2018-05-10T00:34:34.027Z,72
2018-05-10T00:35:34.751Z,72
2018-05-10T00:36:35.513Z,72
2018-05-10T00:37:36.275Z,72
2018-05-10T00:38:37.001Z,72
2018-05-10T00:39:37.726Z,72
2018-05-10T00:40:38.451Z,72
2018-05-10T00:41:39.177Z,72
2018-05-10T00:42:39.927Z,72
2018-05-10T00:43:40.686Z,72
2018-05-10T00:44:41.411Z,72
2018-05-10T00:45:42.147Z,72
2018-05-10T00:46:42.905Z,72
2018-05-10T00:47:43.657Z,72
2018-05-10T00:48:44.379Z,72
2018-05-10T00:49:45.101Z,72
2018-05-10T00:50:45.827Z,72
2018-05-10T00:51:46.553Z,72
2018-05-10T00:52:47.276Z,73
2018-05-10T00:53:48.011Z,72
2018-05-10T00:54:48.727Z,73
2018-05-10T00:55:49.457Z,73
2018-05-10T00:56:50.172Z,73
2018-05-10T00:57:50.905Z,72
2018-05-10T00:58:51.622Z,73
2018-05-10T00:59:52.339Z,72
2018-05-10T01:00:53.054Z,73
2018-05-10T01:01:53.782Z,72
2018-05-10T01:02:54.498Z,72
2018-05-10T01:03:55.214Z,72
2018-05-10T01:04:56.055Z,72
2018-05-10T01:05:56.648Z,72
2018-05-10T01:06:57.376Z,73
2018-05-10T01:07:58.093Z,72
2018-05-10T01:08:58.811Z,73
2018-05-10T01:09:59.540Z,72
2018-05-10T01:11:00.268Z,73
2018-05-10T01:12:00.981Z,73
2018-05-10T01:13:01.711Z,72
2018-05-10T01:14:02.427Z,73
2018-05-10T01:15:03.148Z,73
2018-05-10T01:16:03.875Z,73
2018-05-10T01:17:04.591Z,73
2018-05-10T01:18:05.308Z,73
2018-05-10T01:19:06.025Z,72
2018-05-10T01:20:06.754Z,73
2018-05-10T01:21:07.483Z,73
2018-05-10T01:22:08.198Z,73
2018-05-10T01:23:08.912Z,73
2018-05-10T01:24:09.629Z,73
2018-05-10T01:25:10.344Z,73
2018-05-10T01:26:11.060Z,73
2018-05-10T01:27:11.796Z,73
2018-05-10T01:28:12.506Z,73
2018-05-10T01:29:13.221Z,73
2018-05-10T01:30:13.935Z,73
2018-05-10T01:31:14.666Z,73
2018-05-10T01:32:15.384Z,72
2018-05-10T01:33:16.101Z,73
2018-05-10T01:34:16.817Z,73
2018-05-10T01:35:17.533Z,73
2018-05-10T01:36:18.262Z,72
2018-05-10T01:37:18.980Z,72
2018-05-10T01:38:19.695Z,72
2018-05-10T01:39:20.410Z,73
2018-05-10T01:40:21.126Z,72
2018-05-10T01:41:21.844Z,72
2018-05-10T01:42:22.560Z,72
2018-05-10T01:43:23.275Z,72
2018-05-10T01:44:23.990Z,72
2018-05-10T01:45:24.704Z,72
2018-05-10T01:46:25.441Z,72
2018-05-10T01:47:26.152Z,72
2018-05-10T01:48:26.870Z,71
2018-05-10T01:49:27.586Z,72
2018-05-10T01:50:28.302Z,71
2018-05-10T01:51:29.019Z,71
2018-05-10T01:52:29.734Z,72
2018-05-10T01:53:30.464Z,71
2018-05-10T01:54:31.181Z,72
2018-05-10T01:55:31.897Z,71
2018-05-10T01:56:32.614Z,72
2018-05-10T01:57:33.328Z,71
2018-05-10T01:58:34.041Z,71
2018-05-10T01:59:34.756Z,71
2018-05-10T02:00:35.488Z,72
2018-05-10T02:01:36.206Z,71
2018-05-10T02:02:36.922Z,71
2018-05-10T02:03:37.639Z,72
2018-05-10T02:04:38.353Z,71
2018-05-10T02:05:39.073Z,71
2018-05-10T02:06:39.800Z,71
2018-05-10T02:07:40.516Z,71
2018-05-10T02:08:41.235Z,71
2018-05-10T02:09:41.947Z,71
2018-05-10T02:10:42.679Z,71
2018-05-10T02:11:43.395Z,71
2018-05-10T02:12:44.111Z,71
2018-05-10T02:13:44.831Z,71
2018-05-10T02:14:45.554Z,71
2018-05-10T02:15:46.268Z,71
2018-05-10T02:16:46.984Z,71
2018-05-10T02:17:47.698Z,71
2018-05-10T02:18:48.411Z,71
2018-05-10T02:19:49.127Z,71
2018-05-10T02:20:49.849Z,71
2018-05-10T02:21:50.579Z,71
2018-05-10T02:22:51.306Z,71
2018-05-10T02:23:52.023Z,71
2018-05-10T02:24:52.739Z,71
2018-05-10T02:25:53.454Z,71
2018-05-10T02:26:54.169Z,71
2018-05-10T02:27:54.885Z,71
2018-05-10T02:28:55.598Z,70
2018-05-10T02:29:56.313Z,71
2018-05-10T02:30:57.029Z,70
2018-05-10T02:31:57.747Z,70
2018-05-10T02:32:58.472Z,70
2018-05-10T02:33:59.193Z,69
2018-05-10T02:34:59.924Z,69
2018-05-10T02:36:00.636Z,69
2018-05-10T02:37:01.353Z,70
2018-05-10T02:38:02.116Z,69
2018-05-10T02:39:02.798Z,69
2018-05-10T02:40:03.596Z,68
2018-05-10T02:41:04.251Z,68
2018-05-10T02:42:04.968Z,68
2018-05-10T02:43:05.686Z,68
2018-05-10T02:44:06.402Z,68
2018-05-10T02:45:07.224Z,67
2018-05-10T02:46:07.831Z,67
2018-05-10T02:47:08.547Z,67
2018-05-10T02:48:09.262Z,66
2018-05-10T02:49:09.978Z,66
2018-05-10T02:50:10.692Z,65
2018-05-10T02:51:11.414Z,65
2018-05-10T02:52:12.136Z,66
2018-05-10T02:53:12.852Z,65
2018-05-10T02:54:13.566Z,65
2018-05-10T02:55:14.281Z,65
2018-05-10T02:56:15.013Z,65
2018-05-10T02:57:15.728Z,65
2018-05-10T02:58:16.457Z,64
2018-05-10T02:59:17.173Z,64
2018-05-10T03:00:17.887Z,64
2018-05-10T03:01:18.602Z,64
2018-05-10T03:02:19.318Z,65
2018-05-10T03:03:20.032Z,64
2018-05-10T03:04:20.747Z,64
2018-05-10T03:05:21.463Z,64
2018-05-10T03:06:22.178Z,64
2018-05-10T03:07:22.896Z,64
2018-05-10T03:08:23.608Z,64
2018-05-10T03:09:24.326Z,64
2018-05-10T03:10:25.039Z,64
2018-05-10T03:11:25.752Z,64
2018-05-10T03:12:26.466Z,64
2018-05-10T03:13:27.195Z,64
2018-05-10T03:14:27.911Z,64
2018-05-10T03:15:28.627Z,64
2018-05-10T03:16:29.359Z,64
2018-05-10T03:17:30.075Z,64
2018-05-10T03:18:30.790Z,64
2018-05-10T03:19:31.505Z,64
2018-05-10T03:20:32.219Z,64
2018-05-10T03:21:32.950Z,64
2018-05-10T03:22:33.667Z,64
2018-05-10T03:23:34.397Z,64
2018-05-10T03:24:35.115Z,64
2018-05-10T03:25:35.833Z,64
2018-05-10T03:26:36.550Z,64
2018-05-10T03:27:37.273Z,64
2018-05-10T03:28:37.998Z,64
2018-05-10T03:29:38.715Z,64
2018-05-10T03:30:39.444Z,64
2018-05-10T03:31:40.161Z,64
2018-05-10T03:32:40.897Z,64
2018-05-10T03:33:41.609Z,64
2018-05-10T03:34:42.340Z,64
2018-05-10T03:35:43.057Z,64
2018-05-10T03:36:43.772Z,64
2018-05-10T03:37:44.488Z,64
2018-05-10T03:38:45.206Z,64
2018-05-10T03:39:45.921Z,64
2018-05-10T03:40:46.652Z,63
2018-05-10T03:41:47.371Z,64
2018-05-10T03:42:48.089Z,64
2018-05-10T03:43:48.809Z,63
2018-05-10T03:44:49.525Z,64
2018-05-10T03:45:50.243Z,64
2018-05-10T03:46:50.962Z,63
2018-05-10T03:47:51.678Z,64
2018-05-10T03:48:52.397Z,63
2018-05-10T03:49:53.130Z,64
2018-05-10T03:50:53.860Z,63
2018-05-10T03:51:54.577Z,63
2018-05-10T03:52:55.297Z,63
2018-05-10T03:53:56.053Z,63
2018-05-10T03:54:56.773Z,63
2018-05-10T03:55:57.505Z,63
2018-05-10T03:56:58.238Z,63
2018-05-10T03:57:58.957Z,63
2018-05-10T03:58:59.675Z,63
2018-05-10T04:00:00.394Z,63
2018-05-10T04:01:01.127Z,64
2018-05-10T04:02:01.848Z,63
2018-05-10T04:03:02.566Z,63
2018-05-10T04:04:03.286Z,64
2018-05-10T04:05:04.007Z,64
2018-05-10T04:06:04.809Z,64
2018-05-10T04:07:05.460Z,64
2018-05-10T04:08:06.178Z,64
2018-05-10T04:09:06.895Z,64
2018-05-10T04:10:07.614Z,64
2018-05-10T04:11:08.333Z,64
2018-05-10T04:12:09.051Z,65
2018-05-10T04:13:09.769Z,64
2018-05-10T04:14:10.488Z,64
2018-05-10T04:15:11.221Z,64
2018-05-10T04:16:11.939Z,64
2018-05-10T04:17:12.659Z,64
2018-05-10T04:18:13.378Z,64
2018-05-10T04:19:14.095Z,64
2018-05-10T04:20:14.815Z,64
2018-05-10T04:21:15.536Z,64
2018-05-10T04:22:16.255Z,65
2018-05-10T04:23:16.987Z,65
2018-05-10T04:24:17.707Z,65
2018-05-10T04:25:18.440Z,64
2018-05-10T04:26:19.160Z,64
2018-05-10T04:27:19.882Z,64
2018-05-10T04:28:20.601Z,64
2018-05-10T04:29:21.320Z,64
2018-05-10T04:30:22.044Z,64
2018-05-10T04:31:22.764Z,64
2018-05-10T04:32:23.498Z,64
2018-05-10T04:33:24.233Z,64
2018-05-10T04:34:24.954Z,64
2018-05-10T04:35:25.676Z,64
2018-05-10T04:36:26.411Z,64
2018-05-10T04:37:27.132Z,64
2018-05-10T04:38:27.852Z,64
2018-05-10T04:39:28.573Z,63
2018-05-10T04:40:29.309Z,63
2018-05-10T04:41:30.030Z,64
2018-05-10T04:42:30.750Z,63
2018-05-10T04:43:31.469Z,63
2018-05-10T04:44:32.204Z,63
2018-05-10T04:45:32.926Z,64
2018-05-10T04:46:33.645Z,63
2018-05-10T04:47:34.366Z,63
2018-05-10T04:48:35.087Z,63
2018-05-10T04:49:35.809Z,63
2018-05-10T04:50:36.528Z,63
2018-05-10T04:51:37.250Z,63
2018-05-10T04:52:37.984Z,63
2018-05-10T04:53:38.742Z,63
2018-05-10T04:54:39.422Z,63
2018-05-10T04:55:40.142Z,63
2018-05-10T04:56:40.870Z,63
2018-05-10T04:57:41.592Z,63
2018-05-10T04:58:42.332Z,62
2018-05-10T04:59:43.045Z,63
2018-05-10T05:00:43.766Z,63
2018-05-10T05:01:44.486Z,63
2018-05-10T05:02:45.204Z,63
2018-05-10T05:03:45.923Z,63
2018-05-10T05:04:46.641Z,62
2018-05-10T05:05:47.379Z,63
2018-05-10T05:06:48.097Z,63
2018-05-10T05:07:48.817Z,63
2018-05-10T05:08:49.561Z,63
2018-05-10T05:09:50.274Z,63
2018-05-10T05:10:50.995Z,63
2018-05-10T05:11:51.759Z,63
2018-05-10T05:12:52.441Z,63
2018-05-10T05:13:53.154Z,63
2018-05-10T05:14:53.888Z,63
2018-05-10T05:15:54.648Z,63
2018-05-10T05:16:55.324Z,63
2018-05-10T05:17:56.045Z,63
2018-05-10T05:18:56.763Z,63
2018-05-10T05:19:57.483Z,62
2018-05-10T05:20:58.202Z,62
2018-05-10T05:21:58.936Z,62
2018-05-10T05:22:59.653Z,62
2018-05-10T05:24:00.371Z,62
2018-05-10T05:25:01.107Z,63
2018-05-10T05:26:01.825Z,62
2018-05-10T05:27:02.548Z,62
2018-05-10T05:28:03.270Z,62
2018-05-10T05:29:04.002Z,62
2018-05-10T05:30:04.727Z,62
2018-05-10T05:31:05.445Z,62
2018-05-10T05:32:06.166Z,62
2018-05-10T05:33:06.885Z,62
2018-05-10T05:34:07.605Z,62
2018-05-10T05:35:08.325Z,62
2018-05-10T05:36:09.046Z,62
2018-05-10T05:37:09.767Z,62
2018-05-10T05:38:10.501Z,62
2018-05-10T05:39:11.236Z,62
2018-05-10T05:40:11.969Z,62
2018-05-10T05:41:12.707Z,61
2018-05-10T05:42:13.421Z,62
2018-05-10T05:43:14.227Z,62
2018-05-10T05:44:14.875Z,62
2018-05-10T05:45:15.594Z,63
2018-05-10T05:46:16.315Z,62
2018-05-10T05:47:17.036Z,62
2018-05-10T05:48:17.768Z,62
2018-05-10T05:49:18.490Z,62
2018-05-10T05:50:19.211Z,63
2018-05-10T05:51:19.947Z,63
2018-05-10T05:52:20.661Z,62
2018-05-10T05:53:21.383Z,63
2018-05-10T05:54:22.103Z,62
2018-05-10T05:55:22.823Z,62
2018-05-10T05:56:23.544Z,62
2018-05-10T05:57:24.264Z,62
2018-05-10T05:58:24.985Z,62
2018-05-10T05:59:25.721Z,62
2018-05-10T06:00:26.443Z,62
2018-05-10T06:01:27.163Z,62
2018-05-10T06:02:27.881Z,62
2018-05-10T06:03:28.602Z,62
2018-05-10T06:04:29.326Z,62
2018-05-10T06:05:30.043Z,61
2018-05-10T06:06:30.764Z,61
2018-05-10T06:07:31.486Z,62
2018-05-10T06:08:32.222Z,61
2018-05-10T06:09:32.940Z,62
2018-05-10T06:10:33.660Z,62
2018-05-10T06:11:34.384Z,62
2018-05-10T06:12:35.105Z,62
2018-05-10T06:13:35.827Z,62
2018-05-10T06:14:36.549Z,62
2018-05-10T06:15:37.382Z,62
2018-05-10T06:16:38.012Z,62
2018-05-10T06:17:38.734Z,62
2018-05-10T06:18:39.455Z,63
2018-05-10T06:19:40.179Z,62
2018-05-10T06:20:40.900Z,62
2018-05-10T06:21:41.620Z,63
2018-05-10T06:22:42.342Z,62
2018-05-10T06:23:43.064Z,63
2018-05-10T06:24:43.800Z,62
2018-05-10T06:25:44.507Z,63
2018-05-10T06:26:45.230Z,63
2018-05-10T06:27:45.951Z,63
2018-05-10T06:28:46.673Z,63
2018-05-10T06:29:47.395Z,63
2018-05-10T06:30:48.123Z,63
2018-05-10T06:31:48.841Z,63
2018-05-10T06:32:49.565Z,63
2018-05-10T06:33:50.286Z,63
2018-05-10T06:34:51.009Z,62
2018-05-10T06:35:51.744Z,63
2018-05-10T06:36:52.465Z,63
2018-05-10T06:37:53.188Z,63
2018-05-10T06:38:53.911Z,63
2018-05-10T06:39:54.632Z,63
2018-05-10T06:40:55.356Z,63
2018-05-10T06:41:56.081Z,62
2018-05-10T06:42:56.802Z,63
2018-05-10T06:43:57.526Z,62
2018-05-10T06:44:58.250Z,62
2018-05-10T06:45:58.988Z,62
2018-05-10T06:46:59.720Z,62
2018-05-10T06:48:00.454Z,62
2018-05-10T06:49:01.165Z,63
2018-05-10T06:50:01.904Z,62
2018-05-10T06:51:02.642Z,62
2018-05-10T06:52:03.365Z,62
2018-05-10T06:53:04.088Z,62
2018-05-10T06:54:04.812Z,62
2018-05-10T06:55:05.550Z,62
2018-05-10T06:56:06.287Z,61
2018-05-10T06:57:07.011Z,62
2018-05-10T06:58:07.737Z,62
2018-05-10T06:59:08.461Z,62
2018-05-10T07:00:09.199Z,62
2018-05-10T07:01:09.927Z,61
2018-05-10T07:02:10.651Z,61
2018-05-10T07:03:11.378Z,62
2018-05-10T07:04:12.100Z,61
2018-05-10T07:05:12.847Z,61
2018-05-10T07:06:13.582Z,61
2018-05-10T07:07:14.308Z,61
2018-05-10T07:08:15.035Z,62
2018-05-10T07:09:15.787Z,61
2018-05-10T07:10:16.501Z,60
2018-05-10T07:11:17.250Z,61
2018-05-10T07:12:17.982Z,61
2018-05-10T07:13:18.709Z,61
2018-05-10T07:14:19.433Z,60
2018-05-10T07:15:20.172Z,62
2018-05-10T07:16:20.912Z,60
2018-05-10T07:17:21.638Z,61
2018-05-10T07:18:22.361Z,61
2018-05-10T07:19:23.105Z,61
2018-05-10T07:20:23.825Z,61
2018-05-10T07:21:24.548Z,61
2018-05-10T07:22:25.289Z,62
2018-05-10T07:23:26.013Z,61
2018-05-10T07:24:26.735Z,61
2018-05-10T07:25:27.473Z,61
2018-05-10T07:26:28.185Z,61
2018-05-10T07:27:28.912Z,61
2018-05-10T07:28:29.636Z,60
2018-05-10T07:29:30.360Z,61
2018-05-10T07:30:31.086Z,61
2018-05-10T07:31:31.811Z,62
2018-05-10T07:32:32.540Z,61
2018-05-10T07:33:33.260Z,61
2018-05-10T07:34:33.985Z,62
2018-05-10T07:35:34.724Z,62
2018-05-10T07:36:35.450Z,62
2018-05-10T07:37:36.174Z,62
2018-05-10T07:38:36.901Z,62
2018-05-10T07:39:37.626Z,61
2018-05-10T07:40:38.365Z,62
2018-05-10T07:41:39.104Z,62
2018-05-10T07:42:39.830Z,62
2018-05-10T07:43:40.555Z,61
2018-05-10T07:44:41.292Z,62
2018-05-10T07:45:42.019Z,62
2018-05-10T07:46:42.757Z,61
2018-05-10T07:47:43.499Z,62
2018-05-10T07:48:44.224Z,61
2018-05-10T07:49:44.962Z,62
2018-05-10T07:50:45.688Z,62
2018-05-10T07:51:46.414Z,62
2018-05-10T07:52:47.140Z,63
2018-05-10T07:53:47.865Z,64
2018-05-10T07:54:48.591Z,63
2018-05-10T07:55:49.317Z,62
2018-05-10T07:56:50.055Z,64
2018-05-10T07:57:50.781Z,64
2018-05-10T07:58:51.507Z,64
2018-05-10T07:59:52.238Z,64
2018-05-10T08:00:52.977Z,65
2018-05-10T08:01:53.717Z,65
2018-05-10T08:02:54.443Z,65
2018-05-10T08:03:55.172Z,64
2018-05-10T08:04:55.899Z,65
2018-05-10T08:05:56.630Z,66
2018-05-10T08:06:57.364Z,67
2018-05-10T08:07:58.103Z,66
2018-05-10T08:08:58.834Z,66
2018-05-10T08:09:59.582Z,65
2018-05-10T08:11:00.329Z,67
2018-05-10T08:12:01.058Z,67
2018-05-10T08:13:01.792Z,67
2018-05-10T08:14:02.525Z,67
2018-05-10T08:15:03.257Z,68
2018-05-10T08:16:04.003Z,68
2018-05-10T08:17:04.831Z,68
2018-05-10T08:18:05.472Z,68
2018-05-10T08:19:06.207Z,68
2018-05-10T08:20:06.952Z,68
2018-05-10T08:21:07.686Z,67
2018-05-10T08:22:08.418Z,66
2018-05-10T08:23:09.163Z,66
2018-05-10T08:24:09.908Z,66
2018-05-10T08:25:10.629Z,65
2018-05-10T08:26:11.362Z,65
2018-05-10T08:27:12.095Z,65
2018-05-10T08:28:12.827Z,66
2018-05-10T08:29:13.559Z,65
2018-05-10T08:30:14.340Z,65
2018-05-10T08:31:15.025Z,66
2018-05-10T08:32:15.759Z,66
2018-05-10T08:33:16.491Z,66
2018-05-10T08:34:17.239Z,66
2018-05-10T08:35:17.984Z,65
2018-05-10T08:36:18.719Z,66
2018-05-10T08:37:19.447Z,65
2018-05-10T08:38:20.179Z,65
2018-05-10T08:39:20.922Z,66
2018-05-10T08:40:21.651Z,66
2018-05-10T08:41:22.387Z,66
2018-05-10T08:42:23.117Z,66
2018-05-10T08:43:23.848Z,67
2018-05-10T08:44:24.581Z,67
2018-05-10T08:45:25.311Z,67
2018-05-10T08:46:26.046Z,67
2018-05-10T08:47:26.778Z,67
2018-05-10T08:48:27.528Z,67
2018-05-10T08:49:28.260Z,68
2018-05-10T08:50:29.008Z,68
2018-05-10T08:51:29.768Z,69
2018-05-10T08:52:30.504Z,70
2018-05-10T08:53:31.247Z,69
2018-05-10T08:54:31.983Z,69
2018-05-10T08:55:32.728Z,70
2018-05-10T08:56:33.461Z,70
2018-05-10T08:57:34.196Z,71
2018-05-10T08:58:34.929Z,71
2018-05-10T08:59:35.676Z,70
2018-05-10T09:00:36.425Z,71
2018-05-10T09:01:37.160Z,71
2018-05-10T09:02:37.909Z,70
2018-05-10T09:03:38.657Z,70
2018-05-10T09:04:39.396Z,71
2018-05-10T09:05:40.124Z,71
2018-05-10T09:06:40.860Z,69
2018-05-10T09:07:41.603Z,69
2018-05-10T09:08:42.337Z,69
2018-05-10T09:09:43.069Z,69
2018-05-10T09:10:43.803Z,70
2018-05-10T09:11:44.552Z,70
2018-05-10T09:12:45.288Z,69
2018-05-10T09:13:46.019Z,69
2018-05-10T09:14:46.754Z,69
2018-05-10T09:15:47.488Z,68
2018-05-10T09:16:48.216Z,68
2018-05-10T09:17:48.949Z,67
2018-05-10T09:18:49.695Z,67
2018-05-10T09:19:50.428Z,68
2018-05-10T09:20:51.163Z,68
2018-05-10T09:21:51.896Z,69
2018-05-10T09:22:52.625Z,69
2018-05-10T09:23:53.357Z,69
2018-05-10T09:24:54.103Z,69
2018-05-10T09:25:54.912Z,69
2018-05-10T09:26:55.569Z,69
2018-05-10T09:27:56.304Z,70
2018-05-10T09:28:57.053Z,68
2018-05-10T09:29:57.780Z,68
2018-05-10T09:30:58.513Z,69
2018-05-10T09:31:59.247Z,70
2018-05-10T09:32:59.978Z,71
2018-05-10T09:34:00.710Z,71
2018-05-10T09:35:01.459Z,71
2018-05-10T09:36:02.185Z,71
2018-05-10T09:37:02.915Z,71
2018-05-10T09:38:03.647Z,71
2018-05-10T09:39:04.374Z,72
2018-05-10T09:40:05.103Z,72
2018-05-10T09:41:05.850Z,72
2018-05-10T09:42:06.580Z,72
2018-05-10T09:43:07.323Z,72
2018-05-10T09:44:08.054Z,72
2018-05-10T09:45:08.781Z,72
2018-05-10T09:46:09.520Z,72
2018-05-10T09:47:10.248Z,71
2018-05-10T09:48:10.979Z,71
2018-05-10T09:49:11.709Z,72
2018-05-10T09:50:12.440Z,71
2018-05-10T09:51:13.169Z,72
2018-05-10T09:52:13.899Z,72
2018-05-10T09:53:14.626Z,71
2018-05-10T09:54:15.358Z,71
2018-05-10T09:55:16.100Z,71
2018-05-10T09:56:16.829Z,70
2018-05-10T09:57:17.572Z,70
2018-05-10T09:58:18.302Z,71
2018-05-10T09:59:19.033Z,70
2018-05-10T10:00:19.760Z,70
2018-05-10T10:01:20.499Z,71
2018-05-10T10:02:21.227Z,71
2018-05-10T10:03:21.954Z,70
2018-05-10T10:04:22.683Z,70
2018-05-10T10:05:23.412Z,69
2018-05-10T10:06:24.147Z,68
2018-05-10T10:07:24.873Z,66
2018-05-10T10:08:25.599Z,67
2018-05-10T10:09:26.324Z,64
2018-05-10T10:10:27.049Z,63
2018-05-10T10:11:27.775Z,63
2018-05-10T10:12:28.500Z,63
2018-05-10T10:13:29.224Z,61
2018-05-10T10:14:29.941Z,62
2018-05-10T10:15:30.665Z,61
2018-05-10T10:16:31.388Z,63
2018-05-10T10:17:32.120Z,60
2018-05-10T10:18:32.850Z,60
2018-05-10T10:19:33.574Z,62
2018-05-10T10:20:34.297Z,62
2018-05-10T10:21:35.036Z,59
2018-05-10T10:22:35.758Z,61
2018-05-10T10:23:36.481Z,61
2018-05-10T10:24:37.212Z,58
2018-05-10T10:25:37.947Z,59
2018-05-10T10:26:38.665Z,60
2018-05-10T10:27:39.390Z,60
2018-05-10T10:28:40.115Z,59
2018-05-10T10:29:40.843Z,60
2018-05-10T10:30:41.572Z,59
2018-05-10T10:31:42.293Z,61
2018-05-10T10:32:43.019Z,58
2018-05-10T10:33:43.741Z,61
2018-05-10T10:34:44.467Z,63
2018-05-10T10:35:45.191Z,65
2018-05-10T10:36:45.918Z,59
2018-05-10T10:37:46.639Z,60
2018-05-10T10:38:47.362Z,61
2018-05-10T10:39:48.085Z,58
2018-05-10T10:40:48.809Z,58
2018-05-10T10:41:49.533Z,59
2018-05-10T10:42:50.260Z,60
2018-05-10T10:43:50.978Z,58
2018-05-10T10:44:51.704Z,58
2018-05-10T10:45:52.436Z,58
2018-05-10T10:46:53.157Z,59
2018-05-10T10:47:53.893Z,59
2018-05-10T10:48:54.615Z,59
2018-05-10T10:49:55.338Z,60
2018-05-10T10:50:56.059Z,61
2018-05-10T10:51:56.794Z,60
2018-05-10T10:52:57.623Z,59
2018-05-10T10:53:58.346Z,60
2018-05-10T10:54:58.989Z,60
2018-05-10T10:55:59.711Z,59
2018-05-10T10:57:00.433Z,59
2018-05-10T10:58:01.155Z,60
2018-05-10T10:59:01.876Z,60
2018-05-10T11:00:02.688Z,60
2018-05-10T11:01:03.320Z,60
2018-05-10T11:02:04.043Z,59
2018-05-10T11:03:04.764Z,60
2018-05-10T11:04:05.485Z,61
2018-05-10T11:05:06.207Z,59
2018-05-10T11:06:06.932Z,61
2018-05-10T11:07:07.666Z,60
2018-05-10T11:08:08.401Z,59
2018-05-10T11:09:09.142Z,60
2018-05-10T11:10:09.842Z,60
2018-05-10T11:11:10.565Z,60
2018-05-10T11:12:11.284Z,60
2018-05-10T11:13:12.005Z,60
2018-05-10T11:14:12.731Z,60
2018-05-10T11:15:13.463Z,59
2018-05-10T11:16:14.197Z,60
2018-05-10T11:17:14.922Z,61
2018-05-10T11:18:15.656Z,60
2018-05-10T11:19:16.389Z,60
2018-05-10T11:20:17.109Z,59
2018-05-10T11:21:17.829Z,59
2018-05-10T11:22:18.551Z,60
2018-05-10T11:23:19.271Z,59
2018-05-10T11:24:20.006Z,60
2018-05-10T11:25:20.764Z,61
2018-05-10T11:26:21.464Z,59
2018-05-10T11:27:22.229Z,60
2018-05-10T11:28:22.911Z,60
2018-05-10T11:29:23.632Z,60
2018-05-10T11:30:24.355Z,61
2018-05-10T11:31:25.078Z,61
2018-05-10T11:32:25.799Z,60
2018-05-10T11:33:26.520Z,59
2018-05-10T11:34:27.257Z,60
2018-05-10T11:35:27.978Z,60
2018-05-10T11:36:28.703Z,61
2018-05-10T11:37:29.437Z,60
2018-05-10T11:38:30.160Z,60
2018-05-10T11:39:30.882Z,60
2018-05-10T11:40:31.602Z,60
2018-05-10T11:41:32.325Z,61
2018-05-10T11:42:33.046Z,60
2018-05-10T11:43:33.769Z,60
2018-05-10T11:44:34.618Z,60
2018-05-10T11:45:35.224Z,60
2018-05-10T11:46:35.960Z,62
2018-05-10T11:47:36.681Z,60
2018-05-10T11:48:37.468Z,60
2018-05-10T11:49:38.125Z,61
2018-05-10T11:50:38.860Z,61
2018-05-10T11:51:39.584Z,62
2018-05-10T11:52:40.321Z,61
2018-05-10T11:53:41.042Z,60
2018-05-10T11:54:41.763Z,60
2018-05-10T11:55:42.484Z,60
2018-05-10T11:56:43.206Z,60
2018-05-10T11:57:43.928Z,61
2018-05-10T11:58:44.649Z,61
2018-05-10T11:59:45.371Z,60
2018-05-10T12:00:46.092Z,61
2018-05-10T12:01:46.813Z,61
2018-05-10T12:02:47.550Z,59
2018-05-10T12:03:48.272Z,62
2018-05-10T12:04:48.995Z,60
2018-05-10T12:05:49.727Z,61
2018-05-10T12:06:50.449Z,60
2018-05-10T12:07:51.169Z,60
2018-05-10T12:08:51.891Z,60
2018-05-10T12:09:52.611Z,60
2018-05-10T12:10:53.329Z,61
2018-05-10T12:11:54.049Z,61
2018-05-10T12:12:54.775Z,64
2018-05-10T12:13:55.507Z,60
2018-05-10T12:14:56.227Z,62
2018-05-10T12:15:56.963Z,61
2018-05-10T12:16:57.682Z,63
2018-05-10T12:17:58.402Z,61
2018-05-10T12:18:59.136Z,62
2018-05-10T12:19:59.857Z,62
2018-05-10T12:21:00.577Z,62
2018-05-10T12:22:01.298Z,65
2018-05-10T12:23:02.019Z,63
2018-05-10T12:24:02.754Z,63
2018-05-10T12:25:03.475Z,62
2018-05-10T12:26:04.195Z,62
2018-05-10T12:27:04.918Z,63
2018-05-10T12:28:05.638Z,62
2018-05-10T12:29:06.361Z,64
2018-05-10T12:30:07.086Z,64
2018-05-10T12:31:07.807Z,63
2018-05-10T12:32:08.524Z,61
2018-05-10T12:33:09.245Z,62
2018-05-10T12:34:09.969Z,60
2018-05-10T12:35:10.686Z,64
2018-05-10T12:36:11.420Z,61
2018-05-10T12:37:12.141Z,63
2018-05-10T12:38:12.862Z,63
2018-05-10T12:39:13.580Z,59
2018-05-10T12:40:14.300Z,60
2018-05-10T12:41:15.022Z,62
2018-05-10T12:42:15.741Z,62
2018-05-10T12:43:16.460Z,62
2018-05-10T12:44:17.180Z,62
2018-05-10T12:45:17.901Z,62
2018-05-10T12:46:18.623Z,64
2018-05-10T12:47:19.342Z,61
2018-05-10T12:48:20.064Z,62
2018-05-10T12:49:20.817Z,63
2018-05-10T12:50:21.539Z,60
2018-05-10T12:51:22.272Z,63
2018-05-10T12:52:23.018Z,63
2018-05-10T12:53:23.759Z,65
2018-05-10T12:54:24.544Z,64
2018-05-10T12:55:25.268Z,66
2018-05-10T12:56:26.175Z,65
2018-05-10T12:57:26.741Z,65
2018-05-10T12:58:27.476Z,63
2018-05-10T12:59:28.239Z,61
2018-05-10T13:00:28.991Z,61
2018-05-10T13:01:29.732Z,62
2018-05-10T13:02:30.457Z,64
2018-05-10T13:03:31.207Z,62
2018-05-10T13:04:31.937Z,62
2018-05-10T13:05:32.651Z,62
2018-05-10T13:06:33.385Z,62
2018-05-10T13:07:34.126Z,60
2018-05-10T13:08:34.879Z,61
2018-05-10T13:09:35.618Z,61
2018-05-10T13:10:36.347Z,62
2018-05-10T13:11:37.100Z,61
2018-05-10T13:12:37.816Z,61
2018-05-10T13:13:38.550Z,61
2018-05-10T13:14:39.286Z,60
2018-05-10T13:15:40.047Z,61
2018-05-10T13:16:40.796Z,61
2018-05-10T13:17:41.560Z,61
2018-05-10T13:18:42.305Z,62
2018-05-10T13:19:43.064Z,62
2018-05-10T13:20:43.801Z,59
2018-05-10T13:21:44.542Z,61
2018-05-10T13:22:45.515Z,61
2018-05-10T13:23:46.266Z,61
2018-05-10T13:24:46.990Z,59
2018-05-10T13:25:47.710Z,61
2018-05-10T13:26:48.428Z,61
2018-05-10T13:27:49.161Z,59
2018-05-10T13:28:49.889Z,60
2018-05-10T13:29:50.601Z,60
2018-05-10T13:30:51.320Z,60
2018-05-10T13:31:52.041Z,60
2018-05-10T13:32:52.777Z,60
2018-05-10T13:33:53.497Z,61
2018-05-10T13:34:54.220Z,61
2018-05-10T13:35:54.948Z,60
2018-05-10T13:36:55.683Z,62
2018-05-10T13:37:56.403Z,59
2018-05-10T13:38:57.123Z,62
2018-05-10T13:39:57.845Z,60
2018-05-10T13:40:58.564Z,60
2018-05-10T13:41:59.300Z,60
2018-05-10T13:43:00.020Z,60
2018-05-10T13:44:00.741Z,59
2018-05-10T13:45:01.476Z,60
2018-05-10T13:46:02.195Z,60
2018-05-10T13:47:02.978Z,59
2018-05-10T13:48:03.674Z,61
2018-05-10T13:49:04.394Z,60
2018-05-10T13:50:05.128Z,60
2018-05-10T13:51:05.847Z,60
2018-05-10T13:52:06.568Z,60
2018-05-10T13:53:07.389Z,61
2018-05-10T13:54:08.011Z,60
2018-05-10T13:55:08.745Z,60
2018-05-10T13:56:09.465Z,61
2018-05-10T13:57:10.200Z,60
2018-05-10T13:58:10.933Z,60
2018-05-10T13:59:11.655Z,60
2018-05-10T14:00:12.377Z,60
2018-05-10T14:01:13.115Z,60
2018-05-10T14:02:13.830Z,60
2018-05-10T14:03:14.551Z,61
2018-05-10T14:04:15.274Z,60
2018-05-10T14:05:15.993Z,60
2018-05-10T14:06:16.725Z,60
2018-05-10T14:07:17.445Z,60
2018-05-10T14:08:18.180Z,60
2018-05-10T14:09:18.902Z,60
2018-05-10T14:10:19.621Z,59
2018-05-10T14:11:20.346Z,60
2018-05-10T14:12:21.061Z,60
2018-05-10T14:13:21.782Z,60
2018-05-10T14:14:22.514Z,60
2018-05-10T14:15:23.234Z,60
2018-05-10T14:16:23.953Z,61
2018-05-10T14:17:24.674Z,62
2018-05-10T14:18:25.396Z,61
2018-05-10T14:19:26.133Z,60
2018-05-10T14:20:26.865Z,60
2018-05-10T14:21:27.585Z,60
2018-05-10T14:22:28.305Z,60
2018-05-10T14:23:29.042Z,60
2018-05-10T14:24:29.763Z,60
2018-05-10T14:25:30.487Z,60